createdAt,value
2019-04-14T00:02:14.161Z,5.80
2019-04-14T00:04:47.173Z,5.80
2019-04-14T00:07:18.667Z,5.80
2019-04-14T00:09:49.882Z,5.80
2019-04-14T00:12:20.857Z,5.70
2019-04-14T00:14:51.396Z,5.70
2019-04-14T00:17:21.847Z,5.70
2019-04-14T00:19:52.428Z,5.70
2019-04-14T00:22:22.838Z,5.70
2019-04-14T00:24:53.279Z,5.60
2019-04-14T00:27:23.918Z,5.60
2019-04-14T00:29:54.595Z,5.60
2019-04-14T00:32:26.851Z,5.60
2019-04-14T00:35:02.312Z,5.60
2019-04-14T00:37:44.486Z,5.60
2019-04-14T00:40:23.607Z,5.60
2019-04-14T00:43:15.635Z,5.60
2019-04-14T00:45:53.566Z,5.60
2019-04-14T00:48:25.732Z,5.60
2019-04-14T00:50:58.115Z,5.60
2019-04-14T00:53:29.517Z,5.60
2019-04-14T00:56:00.193Z,5.60
2019-04-14T00:58:30.549Z,5.50
2019-04-14T01:01:02.603Z,5.50
2019-04-14T01:03:33.321Z,5.50
2019-04-14T01:06:03.693Z,5.50
2019-04-14T01:08:34.041Z,5.50
2019-04-14T01:11:05.260Z,5.50
2019-04-14T01:13:35.604Z,5.50
2019-04-14T01:16:13.232Z,5.50
2019-04-14T01:18:39.254Z,5.50
2019-04-14T01:21:09.600Z,5.50
2019-04-14T01:23:41.234Z,5.50
2019-04-14T01:26:11.880Z,5.50
2019-04-14T01:28:42.260Z,5.50
2019-04-14T01:31:12.565Z,5.40
2019-04-14T01:33:42.946Z,5.40
2019-04-14T01:36:13.394Z,5.40
2019-04-14T01:38:44.898Z,5.40
2019-04-14T01:41:15.583Z,5.40
2019-04-14T01:43:45.932Z,5.40
2019-04-14T01:46:22.517Z,5.40
2019-04-14T01:48:48.284Z,5.30
2019-04-14T01:51:39.611Z,5.30
2019-04-14T01:54:40.941Z,5.30
2019-04-14T01:57:32.809Z,5.30
2019-04-14T02:00:35.691Z,5.20
2019-04-14T02:03:06.404Z,5.20
2019-04-14T02:05:36.724Z,5.20
2019-04-14T02:08:07.598Z,5.20
2019-04-14T02:10:39.111Z,5.10
2019-04-14T02:13:09.660Z,5.10
2019-04-14T02:15:40.009Z,5.10
2019-04-14T02:18:12.421Z,5.10
2019-04-14T02:20:42.786Z,5.00
2019-04-14T02:23:13.072Z,5.00
2019-04-14T02:25:43.438Z,5.00
2019-04-14T02:28:15.553Z,5.00
2019-04-14T02:30:56.901Z,4.90
2019-04-14T02:33:46.572Z,4.90
2019-04-14T02:36:21.781Z,4.90
2019-04-14T02:38:57.502Z,4.80
2019-04-14T02:41:31.531Z,4.80
2019-04-14T02:43:58.017Z,4.80
2019-04-14T02:46:34.097Z,4.70
2019-04-14T02:48:59.817Z,4.70
2019-04-14T02:51:40.619Z,4.70
2019-04-14T02:59:05.955Z,4.60
2019-04-14T03:01:39.436Z,4.60
2019-04-14T03:04:05.130Z,4.50
2019-04-14T03:06:46.031Z,4.50
2019-04-14T03:09:19.482Z,4.50
2019-04-14T03:11:45.961Z,4.40
2019-04-14T03:14:25.564Z,4.30
2019-04-14T03:20:24.511Z,4.30
2019-04-14T03:25:34.017Z,4.20
2019-04-14T03:28:28.366Z,4.20
2019-04-14T03:38:37.005Z,4.10
2019-04-14T03:43:38.835Z,4.10
2019-04-14T03:46:17.772Z,4.10
2019-04-14T03:51:20.999Z,4.00
2019-04-14T03:53:47.291Z,4.10
2019-04-14T03:56:31.314Z,4.10
2019-04-14T03:59:01.984Z,4.10
2019-04-14T04:01:32.552Z,4.00
2019-04-14T04:04:03.254Z,4.00
2019-04-14T04:06:35.562Z,4.00
2019-04-14T04:09:08.542Z,3.90
2019-04-14T04:11:39.062Z,3.90
2019-04-14T04:14:09.704Z,3.90
2019-04-14T04:16:59.479Z,3.80
2019-04-14T04:19:40.499Z,3.80
2019-04-14T04:22:30.421Z,3.80
2019-04-14T04:25:20.821Z,3.80
2019-04-14T04:28:16.710Z,3.80
2019-04-14T04:31:02.350Z,3.80
2019-04-14T04:34:03.921Z,3.90
2019-04-14T04:36:52.866Z,4.00
2019-04-14T04:39:27.984Z,4.00
2019-04-14T04:41:58.330Z,4.00
2019-04-14T04:44:29.121Z,4.10
2019-04-14T04:46:59.498Z,4.10
2019-04-14T04:49:31.287Z,4.20
2019-04-14T04:52:01.897Z,4.30
2019-04-14T04:54:32.206Z,4.40
2019-04-14T04:57:02.555Z,4.50
2019-04-14T04:59:34.086Z,4.70
2019-04-14T05:02:04.942Z,4.80
2019-04-14T05:04:35.269Z,4.80
2019-04-14T05:07:05.712Z,4.90
2019-04-14T05:10:04.705Z,5.00
2019-04-14T05:12:47.835Z,5.20
2019-04-14T05:15:37.984Z,5.30
2019-04-14T05:18:11.206Z,5.50
2019-04-14T05:20:42.037Z,5.60
2019-04-14T05:23:12.612Z,5.70
2019-04-14T05:25:43.158Z,6.00
2019-04-14T05:28:13.486Z,6.10
2019-04-14T05:30:43.842Z,6.00
2019-04-14T05:33:14.222Z,6.20
2019-04-14T05:35:44.613Z,6.40
2019-04-14T05:38:14.966Z,6.40
2019-04-14T05:40:45.486Z,6.60
2019-04-14T05:43:28.254Z,6.60
2019-04-14T05:45:48.038Z,6.60
2019-04-14T05:48:18.549Z,6.90
2019-04-14T05:50:49.067Z,6.70
2019-04-14T05:53:19.724Z,7.00
2019-04-14T05:55:52.424Z,7.30
2019-04-14T05:58:23.249Z,7.20
2019-04-14T06:00:53.660Z,7.30
2019-04-14T06:03:24.085Z,7.40
2019-04-14T06:05:54.407Z,7.30
2019-04-14T06:08:24.770Z,7.20
2019-04-14T06:10:55.115Z,7.50
2019-04-14T06:13:25.517Z,7.60
2019-04-14T06:15:55.851Z,7.90
2019-04-14T06:18:26.225Z,8.40
2019-04-14T06:20:56.505Z,8.40
2019-04-14T06:23:26.874Z,8.60
2019-04-14T06:25:57.197Z,8.80
2019-04-14T06:28:27.571Z,8.50
2019-04-14T06:31:16.720Z,8.40
2019-04-14T06:33:58.104Z,8.30
2019-04-14T06:37:05.751Z,8.00
2019-04-14T06:39:39.615Z,7.90
2019-04-14T06:42:09.952Z,8.30
2019-04-14T06:44:40.318Z,8.70
2019-04-14T06:47:10.888Z,8.70
2019-04-14T06:49:48.752Z,8.60
2019-04-14T06:52:13.297Z,8.70
2019-04-14T06:54:43.638Z,9.10
2019-04-14T06:57:14.233Z,9.00
2019-04-14T06:59:44.496Z,9.60
2019-04-14T07:02:14.964Z,10.00
2019-04-14T07:04:45.296Z,9.80
2019-04-14T07:07:15.624Z,9.60
2019-04-14T07:09:46.001Z,9.60
2019-04-14T07:12:16.381Z,9.80
2019-04-14T07:14:46.932Z,9.70
2019-04-14T07:17:17.288Z,9.70
2019-04-14T07:19:47.640Z,9.50
2019-04-14T07:22:18.008Z,9.70
2019-04-14T07:24:48.264Z,9.70
2019-04-14T07:27:18.646Z,9.80
2019-04-14T07:30:01.294Z,9.80
2019-04-14T07:32:42.331Z,9.70
2019-04-14T07:35:34.510Z,9.70
2019-04-14T07:38:11.490Z,9.80
2019-04-14T07:40:55.535Z,9.80
2019-04-14T07:43:36.844Z,10.00
2019-04-14T07:46:19.428Z,10.10
2019-04-14T07:49:07.799Z,10.00
2019-04-14T07:51:50.864Z,10.60
2019-04-14T07:54:28.509Z,11.20
2019-04-14T07:57:12.512Z,11.40
2019-04-14T07:59:50.343Z,11.40
2019-04-14T08:02:35.052Z,11.00
2019-04-14T08:05:12.282Z,10.60
2019-04-14T08:07:43.233Z,10.40
2019-04-14T08:10:14.266Z,10.20
2019-04-14T08:12:44.648Z,10.10
2019-04-14T08:15:14.984Z,10.30
2019-04-14T08:17:45.721Z,10.20
2019-04-14T08:20:26.908Z,10.30
2019-04-14T08:22:48.397Z,10.40
2019-04-14T08:25:18.711Z,10.80
2019-04-14T08:27:49.083Z,11.50
2019-04-14T08:30:19.432Z,11.60
2019-04-14T08:32:49.788Z,12.10
2019-04-14T08:35:20.172Z,12.40
2019-04-14T08:37:50.546Z,12.10
2019-04-14T08:40:20.978Z,11.90
2019-04-14T08:43:16.218Z,11.30
2019-04-14T08:46:04.132Z,11.40
2019-04-14T08:48:54.334Z,11.60
2019-04-14T08:51:32.998Z,12.00
2019-04-14T08:54:10.359Z,11.80
2019-04-14T08:56:53.222Z,12.10
2019-04-14T08:59:39.750Z,12.60
2019-04-14T09:02:18.767Z,12.40
2019-04-14T09:04:59.964Z,12.70
2019-04-14T09:07:37.569Z,12.70
2019-04-14T09:10:12.545Z,13.10
2019-04-14T09:12:43.760Z,13.60
2019-04-14T09:15:14.488Z,13.10
2019-04-14T09:17:44.913Z,12.60
2019-04-14T09:20:16.488Z,12.70
2019-04-14T09:22:46.881Z,12.70
2019-04-14T09:25:18.389Z,12.30
2019-04-14T09:27:48.806Z,12.80
2019-04-14T09:30:19.167Z,13.20
2019-04-14T09:32:49.553Z,13.10
2019-04-14T09:35:19.921Z,12.90
2019-04-14T09:37:50.618Z,13.30
2019-04-14T09:40:21.348Z,13.70
2019-04-14T09:42:51.770Z,14.40
2019-04-14T09:45:22.218Z,14.70
2019-04-14T09:47:52.650Z,14.90
2019-04-14T09:50:22.967Z,14.40
2019-04-14T09:52:53.528Z,13.90
2019-04-14T09:55:23.900Z,13.50
2019-04-14T09:57:54.323Z,13.10
2019-04-14T10:00:24.918Z,13.10
2019-04-14T10:02:55.310Z,12.90
2019-04-14T10:05:25.723Z,13.70
2019-04-14T10:07:56.093Z,13.90
2019-04-14T10:10:26.774Z,14.60
2019-04-14T10:12:58.424Z,15.00
2019-04-14T10:15:28.816Z,15.90
2019-04-14T10:17:59.131Z,16.80
2019-04-14T10:20:29.533Z,17.10
2019-04-14T10:22:59.904Z,17.80
2019-04-14T10:25:30.328Z,17.80
2019-04-14T10:28:01.342Z,17.60
2019-04-14T10:30:31.846Z,17.60
2019-04-14T10:33:02.215Z,17.70
2019-04-14T10:35:32.598Z,17.80
2019-04-14T10:38:02.962Z,17.70
2019-04-14T10:40:33.348Z,16.80
2019-04-14T10:43:03.817Z,15.60
2019-04-14T10:45:34.173Z,15.50
2019-04-14T10:48:04.784Z,15.80
2019-04-14T10:50:35.285Z,16.10
2019-04-14T10:53:05.721Z,15.80
2019-04-14T10:55:36.108Z,16.40
2019-04-14T10:58:06.417Z,17.10
2019-04-14T11:00:36.790Z,16.20
2019-04-14T11:03:07.206Z,15.10
2019-04-14T11:05:57.371Z,14.90
2019-04-14T11:08:27.835Z,15.50
2019-04-14T11:10:58.223Z,14.50
2019-04-14T11:13:28.634Z,14.20
2019-04-14T11:15:59.010Z,14.00
2019-04-14T11:18:29.389Z,13.90
2019-04-14T11:20:59.788Z,14.60
2019-04-14T11:23:30.213Z,15.60
2019-04-14T11:26:00.791Z,15.50
2019-04-14T11:28:31.266Z,15.00
2019-04-14T11:31:01.755Z,15.80
2019-04-14T11:33:47.153Z,16.00
2019-04-14T11:36:34.935Z,15.40
2019-04-14T11:39:09.466Z,15.30
2019-04-14T11:41:39.887Z,16.20
2019-04-14T11:44:10.404Z,16.60
2019-04-14T11:46:41.781Z,16.70
2019-04-14T11:49:12.185Z,16.40
2019-04-14T11:51:54.451Z,16.20
2019-04-14T11:54:14.459Z,15.80
2019-04-14T11:56:44.799Z,15.90
2019-04-14T11:59:16.033Z,16.10
2019-04-14T12:01:59.800Z,15.70
2019-04-14T12:04:48.110Z,15.40
2019-04-14T12:07:52.905Z,15.60
2019-04-14T12:10:27.113Z,16.00
2019-04-14T12:12:57.691Z,15.50
2019-04-14T12:15:28.017Z,14.90
2019-04-14T12:17:58.374Z,15.20
2019-04-14T12:20:28.765Z,15.50
2019-04-14T12:22:59.214Z,15.40
2019-04-14T12:25:29.607Z,14.60
2019-04-14T12:28:00.380Z,14.30
2019-04-14T12:30:31.333Z,14.40
2019-04-14T12:33:01.782Z,14.10
2019-04-14T12:35:32.129Z,14.10
2019-04-14T12:38:02.886Z,13.70
2019-04-14T12:40:33.415Z,13.60
2019-04-14T12:43:07.885Z,13.10
2019-04-14T12:45:58.071Z,13.10
2019-04-14T12:48:46.103Z,13.00
2019-04-14T12:51:23.065Z,12.60
2019-04-14T12:53:53.438Z,12.40
2019-04-14T12:56:26.443Z,12.20
2019-04-14T12:59:18.203Z,12.30
2019-04-14T13:02:06.312Z,12.50
2019-04-14T13:04:36.747Z,12.50
2019-04-14T13:07:07.248Z,12.40
2019-04-14T13:09:37.811Z,12.40
2019-04-14T13:12:10.267Z,12.60
2019-04-14T13:14:40.455Z,12.60
2019-04-14T13:17:10.949Z,12.50
2019-04-14T13:19:41.481Z,12.60
2019-04-14T13:22:11.853Z,12.60
2019-04-14T13:24:42.500Z,12.70
2019-04-14T13:27:13.053Z,12.70
2019-04-14T13:29:43.556Z,12.50
2019-04-14T13:32:13.837Z,12.40
2019-04-14T13:34:44.225Z,12.50
2019-04-14T13:37:14.515Z,12.60
2019-04-14T13:39:44.967Z,12.60
2019-04-14T13:42:15.275Z,12.50
2019-04-14T13:44:45.661Z,12.50
2019-04-14T13:47:16.025Z,12.40
2019-04-14T13:49:46.373Z,12.40
2019-04-14T13:52:16.675Z,12.30
2019-04-14T13:54:47.079Z,12.40
2019-04-14T13:57:17.427Z,12.40
2019-04-14T13:59:48.137Z,12.40
2019-04-14T14:02:18.497Z,12.50
2019-04-14T14:04:48.831Z,12.50
2019-04-14T14:07:19.277Z,12.50
2019-04-14T14:09:49.621Z,12.50
2019-04-14T14:12:37.539Z,12.50
2019-04-14T14:15:30.633Z,12.40
2019-04-14T14:18:18.257Z,12.50
2019-04-14T14:21:00.443Z,12.50
2019-04-14T14:23:44.325Z,12.50
2019-04-14T14:26:15.781Z,12.40
2019-04-14T14:28:46.184Z,12.40
2019-04-14T14:31:17.311Z,12.40
2019-04-14T14:33:47.627Z,12.50
2019-04-14T14:36:18.221Z,12.50
2019-04-14T14:38:48.575Z,12.50
2019-04-14T14:41:18.872Z,12.60
2019-04-14T14:43:49.214Z,12.40
2019-04-14T14:46:37.380Z,12.40
2019-04-14T14:49:11.367Z,12.50
2019-04-14T14:52:06.807Z,12.40
2019-04-14T14:54:37.513Z,12.50
2019-04-14T14:57:08.135Z,12.40
2019-04-14T14:59:38.471Z,12.40
2019-04-14T15:02:09.648Z,12.40
2019-04-14T15:04:41.145Z,12.40
2019-04-14T15:07:11.497Z,12.40
2019-04-14T15:09:41.806Z,12.40
2019-04-14T15:12:12.181Z,12.40
2019-04-14T15:14:42.473Z,12.40
2019-04-14T15:17:12.917Z,12.40
2019-04-14T15:19:43.256Z,12.40
2019-04-14T15:22:14.019Z,12.40
2019-04-14T15:24:44.420Z,12.40
2019-04-14T15:27:15.009Z,12.40
2019-04-14T15:29:45.321Z,12.40
2019-04-14T15:32:15.689Z,12.40
2019-04-14T15:34:46.029Z,12.40
2019-04-14T15:37:16.506Z,12.40
2019-04-14T15:39:46.885Z,12.40
2019-04-14T15:42:17.252Z,12.30
2019-04-14T15:44:47.647Z,12.30
2019-04-14T15:47:18.031Z,12.20
2019-04-14T15:49:48.343Z,12.20
2019-04-14T15:52:18.692Z,12.20
2019-04-14T15:54:49.042Z,12.10
2019-04-14T15:57:39.778Z,12.10
2019-04-14T16:00:35.904Z,12.10
2019-04-14T16:03:23.628Z,12.00
2019-04-14T16:06:11.617Z,12.00
2019-04-14T16:08:49.294Z,12.00
2019-04-14T16:11:34.861Z,12.00
2019-04-14T16:14:16.155Z,12.00
2019-04-14T16:17:17.500Z,12.00
2019-04-14T16:19:52.497Z,11.90
2019-04-14T16:22:23.836Z,11.80
2019-04-14T16:24:54.285Z,11.80
2019-04-14T16:27:42.592Z,11.80
2019-04-14T16:30:31.276Z,11.80
2019-04-14T16:33:12.322Z,11.70
2019-04-14T16:35:42.648Z,11.70
2019-04-14T16:38:13.007Z,11.70
2019-04-14T16:40:44.650Z,11.60
2019-04-14T16:43:15.017Z,11.60
2019-04-14T16:45:45.477Z,11.50
2019-04-14T16:48:15.835Z,11.50
2019-04-14T16:50:46.288Z,11.50
2019-04-14T16:53:29.521Z,11.40
2019-04-14T16:56:19.021Z,11.40
2019-04-14T16:58:55.435Z,11.30
2019-04-14T17:01:32.687Z,11.30
2019-04-14T17:04:03.155Z,11.20
2019-04-14T17:06:33.493Z,11.20
2019-04-14T17:09:07.449Z,11.10
2019-04-14T17:11:38.309Z,11.10
2019-04-14T17:14:32.521Z,11.00
2019-04-14T17:17:21.660Z,11.00
2019-04-14T17:19:59.650Z,10.90
2019-04-14T17:22:36.883Z,10.80
2019-04-14T17:25:14.470Z,10.70
2019-04-14T17:28:00.126Z,10.70
2019-04-14T17:30:35.826Z,10.50
2019-04-14T17:33:43.345Z,10.50
2019-04-14T17:36:25.729Z,10.40
2019-04-14T17:39:23.872Z,10.30
2019-04-14T17:42:16.262Z,10.20
2019-04-14T17:44:57.942Z,10.20
2019-04-14T17:47:47.544Z,10.10
2019-04-14T17:50:40.093Z,10.10
2019-04-14T17:53:05.704Z,10.00
2019-04-14T17:55:50.096Z,9.90
2019-04-14T17:58:44.189Z,9.90
2019-04-14T18:01:31.929Z,9.80
2019-04-14T18:04:14.978Z,9.80
2019-04-14T18:06:54.307Z,9.70
2019-04-14T18:09:32.384Z,9.60
2019-04-14T18:12:05.493Z,9.60
2019-04-14T18:14:40.732Z,9.50
2019-04-14T18:17:34.029Z,9.50
2019-04-14T18:20:09.008Z,9.40
2019-04-14T18:22:39.390Z,9.40
2019-04-14T18:25:10.168Z,9.30
2019-04-14T18:27:54.580Z,9.20
2019-04-14T18:30:34.423Z,9.20
2019-04-14T18:33:23.769Z,9.10
2019-04-14T18:36:01.648Z,9.00
2019-04-14T18:38:56.556Z,9.10
2019-04-14T18:41:44.396Z,9.00
2019-04-14T18:44:29.973Z,9.00
2019-04-14T18:47:19.302Z,8.90
2019-04-14T18:49:58.791Z,8.90
2019-04-14T18:52:37.109Z,8.90
2019-04-14T18:55:18.182Z,8.80
2019-04-14T18:58:01.672Z,8.80
2019-04-14T19:00:40.279Z,8.70
2019-04-14T19:03:10.677Z,8.70
2019-04-14T19:05:41.611Z,8.60
2019-04-14T19:08:12.392Z,8.50
2019-04-14T19:10:44.842Z,8.40
2019-04-14T19:13:22.226Z,8.40
2019-04-14T19:15:58.266Z,8.40
2019-04-14T19:18:34.157Z,8.30
2019-04-14T19:21:13.597Z,8.20
2019-04-14T19:23:46.415Z,8.20
2019-04-14T19:26:16.499Z,8.10
2019-04-14T19:28:46.810Z,8.10
2019-04-14T19:31:17.166Z,8.00
2019-04-14T19:33:47.628Z,8.00
2019-04-14T19:36:18.067Z,7.90
2019-04-14T19:38:48.481Z,7.90
2019-04-14T19:41:18.840Z,7.90
2019-04-14T19:43:49.768Z,7.80
2019-04-14T19:46:20.174Z,7.80
2019-04-14T19:48:50.549Z,7.70
2019-04-14T19:51:21.620Z,7.70
2019-04-14T19:53:51.982Z,7.60
2019-04-14T19:56:22.341Z,7.60
2019-04-14T19:58:53.001Z,7.50
2019-04-14T20:01:23.574Z,7.50
2019-04-14T20:03:53.892Z,7.50
2019-04-14T20:06:24.296Z,7.50
2019-04-14T20:08:54.864Z,7.40
2019-04-14T20:11:25.807Z,7.40
2019-04-14T20:13:56.170Z,7.30
2019-04-14T20:16:44.296Z,7.30
2019-04-14T20:19:36.668Z,7.30
2019-04-14T20:22:24.780Z,7.20
2019-04-14T20:24:59.385Z,7.10
2019-04-14T20:27:34.060Z,7.10
2019-04-14T20:30:09.012Z,7.10
2019-04-14T20:32:40.656Z,7.00
2019-04-14T20:35:13.054Z,7.00
2019-04-14T20:37:43.504Z,6.90
2019-04-14T20:40:14.182Z,6.90
2019-04-14T20:42:44.540Z,6.80
2019-04-14T20:45:15.814Z,6.80
2019-04-14T20:47:46.260Z,6.70
2019-04-14T20:50:17.212Z,6.70
2019-04-14T20:52:47.678Z,6.70
2019-04-14T20:55:18.308Z,6.70
2019-04-14T20:57:48.782Z,6.60
2019-04-14T21:00:20.798Z,6.60
2019-04-14T21:03:12.414Z,6.60
2019-04-14T21:06:03.016Z,6.60
2019-04-14T21:09:10.611Z,6.50
2019-04-14T21:12:03.872Z,6.50
2019-04-14T21:14:52.028Z,6.50
2019-04-14T21:17:36.442Z,6.50
2019-04-14T21:20:20.340Z,6.40
2019-04-14T21:23:08.286Z,6.40
2019-04-14T21:26:00.300Z,6.30
2019-04-14T21:28:43.068Z,6.20
2019-04-14T21:31:21.234Z,6.20
2019-04-14T21:34:13.804Z,6.20
2019-04-14T21:36:50.742Z,6.10
2019-04-14T21:39:48.998Z,6.10
2019-04-14T21:42:19.788Z,6.00
2019-04-14T21:44:50.503Z,6.00
2019-04-14T21:47:20.826Z,6.00
2019-04-14T21:49:51.238Z,5.90
2019-04-14T21:52:42.501Z,5.90
2019-04-14T21:55:12.878Z,5.80
2019-04-14T21:58:04.882Z,5.70
2019-04-14T22:01:43.146Z,5.70
2019-04-14T22:04:41.722Z,5.60
2019-04-14T22:07:29.606Z,5.60
2019-04-14T22:10:08.314Z,5.60
2019-04-14T22:12:38.862Z,5.50
2019-04-14T22:15:09.338Z,5.50
2019-04-14T22:17:39.763Z,5.50
2019-04-14T22:20:11.645Z,5.40
2019-04-14T22:22:42.031Z,5.40
2019-04-14T22:25:12.398Z,5.40
2019-04-14T22:27:42.771Z,5.30
2019-04-14T22:30:14.058Z,5.30
2019-04-14T22:32:44.479Z,5.20
2019-04-14T22:35:15.438Z,5.20
2019-04-14T22:37:45.755Z,5.10
2019-04-14T22:40:17.406Z,5.10
2019-04-14T22:42:47.780Z,5.10
2019-04-14T22:45:18.124Z,5.10
2019-04-14T22:47:48.540Z,5.00
2019-04-14T22:50:18.900Z,5.00
2019-04-14T22:52:49.304Z,5.00
2019-04-14T22:55:19.986Z,5.00
2019-04-14T22:57:50.306Z,4.90
2019-04-14T23:00:44.526Z,4.90
2019-04-14T23:03:38.568Z,4.80
2019-04-14T23:06:22.112Z,4.80
2019-04-14T23:09:14.996Z,4.70
2019-04-14T23:12:07.376Z,4.70
2019-04-14T23:14:48.906Z,4.60
2019-04-14T23:17:34.195Z,4.60
2019-04-14T23:20:13.923Z,4.50
2019-04-14T23:22:58.908Z,4.40
2019-04-14T23:25:29.300Z,4.40
2019-04-14T23:27:59.688Z,4.30
2019-04-14T23:30:30.082Z,4.20
2019-04-14T23:33:00.424Z,4.20
2019-04-14T23:35:30.795Z,4.20
2019-04-14T23:38:01.224Z,4.10
2019-04-14T23:40:31.895Z,4.10
2019-04-14T23:43:02.256Z,4.10
2019-04-14T23:45:32.644Z,4.00
2019-04-14T23:48:02.987Z,4.00
2019-04-14T23:50:33.364Z,4.00
2019-04-14T23:53:03.717Z,4.00
2019-04-14T23:55:34.086Z,4.00
2019-04-14T23:58:04.420Z,3.90
